sensor_id;sensor_type;location;lat;lon;timestamp;pressure;altitude;pressure_sealevel;temperature;humidity
13867;BME280;7003;46.982;15.248;2023-01-15T00:02:17;97044.50;;;0.86;100.00
13867;BME280;7003;46.982;15.248;2023-01-15T00:04:44;97039.00;;;0.92;100.00
13867;BME280;7003;46.982;15.248;2023-01-15T00:07:11;97035.63;;;0.76;100.00
13867;BME280;7003;46.982;15.248;2023-01-15T00:09:39;97029.78;;;1.10;100.00
13867;BME280;7003;46.982;15.248;2023-01-15T00:12:06;97027.94;;;1.10;100.00
13867;BME280;7003;46.982;15.248;2023-01-15T00:14:33;97026.16;;;0.86;100.00
13867;BME280;7003;46.982;15.248;2023-01-15T00:17:03;97013.88;;;0.81;100.00
13867;BME280;7003;46.982;15.248;2023-01-15T00:19:32;97006.53;;;0.78;100.00
13867;BME280;7003;46.982;15.248;2023-01-15T00:21:59;97005.47;;;0.89;100.00
13867;BME280;7003;46.982;15.248;2023-01-15T00:24:29;97004.97;;;0.82;100.00
13867;BME280;7003;46.982;15.248;2023-01-15T00:27:13;96998.69;;;0.83;100.00
13867;BME280;7003;46.982;15.248;2023-01-15T00:29:58;97007.06;;;0.85;100.00
13867;BME280;7003;46.982;15.248;2023-01-15T00:32:28;97004.44;;;0.80;100.00
13867;BME280;7003;46.982;15.248;2023-01-15T00:34:59;96998.69;;;0.78;100.00
13867;BME280;7003;46.982;15.248;2023-01-15T00:37:26;96982.72;;;0.85;100.00
13867;BME280;7003;46.982;15.248;2023-01-15T00:39:55;97000.75;;;0.86;100.00
13867;BME280;7003;46.982;15.248;2023-01-15T00:42:23;96999.97;;;0.86;100.00
13867;BME280;7003;46.982;15.248;2023-01-15T00:44:50;96988.75;;;0.80;100.00
13867;BME280;7003;46.982;15.248;2023-01-15T00:47:17;96989.03;;;0.73;100.00
13867;BME280;7003;46.982;15.248;2023-01-15T00:49:46;96982.47;;;0.81;100.00
13867;BME280;7003;46.982;15.248;2023-01-15T00:52:16;96977.69;;;0.98;100.00
13867;BME280;7003;46.982;15.248;2023-01-15T00:54:45;96970.88;;;0.97;100.00
13867;BME280;7003;46.982;15.248;2023-01-15T00:57:13;96966.22;;;0.84;100.00
13867;BME280;7003;46.982;15.248;2023-01-15T00:59:40;96963.00;;;1.02;100.00
13867;BME280;7003;46.982;15.248;2023-01-15T01:02:09;96953.00;;;1.20;100.00
13867;BME280;7003;46.982;15.248;2023-01-15T01:04:36;96961.38;;;1.16;100.00
13867;BME280;7003;46.982;15.248;2023-01-15T01:07:03;96960.94;;;0.99;100.00
13867;BME280;7003;46.982;15.248;2023-01-15T01:09:32;96972.69;;;1.02;100.00
13867;BME280;7003;46.982;15.248;2023-01-15T01:12:02;96965.34;;;1.09;100.00
13867;BME280;7003;46.982;15.248;2023-01-15T01:14:31;96962.59;;;1.39;100.00
13867;BME280;7003;46.982;15.248;2023-01-15T01:16:58;96959.03;;;1.10;100.00
13867;BME280;7003;46.982;15.248;2023-01-15T01:19:25;96960.38;;;1.02;100.00
13867;BME280;7003;46.982;15.248;2023-01-15T01:21:55;96945.47;;;1.03;100.00
13867;BME280;7003;46.982;15.248;2023-01-15T01:24:25;96942.81;;;1.13;100.00
13867;BME280;7003;46.982;15.248;2023-01-15T01:26:53;96944.22;;;1.44;100.00
13867;BME280;7003;46.982;15.248;2023-01-15T01:29:24;96934.53;;;1.45;100.00
13867;BME280;7003;46.982;15.248;2023-01-15T01:31:54;96929.84;;;1.32;100.00
13867;BME280;7003;46.982;15.248;2023-01-15T01:34:21;96940.06;;;1.38;100.00
13867;BME280;7003;46.982;15.248;2023-01-15T01:36:51;96929.09;;;1.31;100.00
13867;BME280;7003;46.982;15.248;2023-01-15T01:39:19;96934.66;;;1.20;100.00
13867;BME280;7003;46.982;15.248;2023-01-15T01:41:47;96922.38;;;1.15;100.00
13867;BME280;7003;46.982;15.248;2023-01-15T01:47:22;96917.91;;;1.10;100.00
13867;BME280;7003;46.982;15.248;2023-01-15T01:49:53;96913.25;;;1.02;100.00
13867;BME280;7003;46.982;15.248;2023-01-15T01:52:26;96911.91;;;1.10;100.00
13867;BME280;7003;46.982;15.248;2023-01-15T01:54:57;96904.25;;;1.19;100.00
13867;BME280;7003;46.982;15.248;2023-01-15T01:57:24;96902.53;;;0.99;100.00
13867;BME280;7003;46.982;15.248;2023-01-15T01:59:52;96904.63;;;0.97;100.00
13867;BME280;7003;46.982;15.248;2023-01-15T02:02:23;96913.25;;;1.07;100.00
13867;BME280;7003;46.982;15.248;2023-01-15T02:04:53;96908.72;;;0.54;100.00
13867;BME280;7003;46.982;15.248;2023-01-15T02:07:25;96902.41;;;0.60;100.00
13867;BME280;7003;46.982;15.248;2023-01-15T02:09:53;96884.63;;;0.62;100.00
13867;BME280;7003;46.982;15.248;2023-01-15T02:12:24;96877.81;;;0.61;100.00
13867;BME280;7003;46.982;15.248;2023-01-15T02:14:58;96877.41;;;0.98;100.00
13867;BME280;7003;46.982;15.248;2023-01-15T02:17:35;96868.94;;;1.16;100.00
13867;BME280;7003;46.982;15.248;2023-01-15T02:20:21;96873.13;;;1.12;100.00
13867;BME280;7003;46.982;15.248;2023-01-15T02:25:55;96852.63;;;0.75;100.00
13867;BME280;7003;46.982;15.248;2023-01-15T02:28:27;96858.41;;;0.72;100.00
13867;BME280;7003;46.982;15.248;2023-01-15T02:31:00;96855.00;;;0.71;100.00
13867;BME280;7003;46.982;15.248;2023-01-15T02:33:35;96850.25;;;0.78;100.00
13867;BME280;7003;46.982;15.248;2023-01-15T02:36:08;96853.13;;;0.82;100.00
13867;BME280;7003;46.982;15.248;2023-01-15T02:38:42;96843.44;;;0.83;100.00
13867;BME280;7003;46.982;15.248;2023-01-15T02:41:14;96839.03;;;0.73;100.00
13867;BME280;7003;46.982;15.248;2023-01-15T02:43:47;96839.06;;;0.68;100.00
13867;BME280;7003;46.982;15.248;2023-01-15T02:46:17;96825.75;;;0.59;100.00
13867;BME280;7003;46.982;15.248;2023-01-15T02:48:51;96809.78;;;0.56;100.00
13867;BME280;7003;46.982;15.248;2023-01-15T02:51:23;96824.41;;;0.67;100.00
13867;BME280;7003;46.982;15.248;2023-01-15T02:53:55;96819.72;;;0.59;100.00
13867;BME280;7003;46.982;15.248;2023-01-15T02:56:29;96810.34;;;0.48;100.00
13867;BME280;7003;46.982;15.248;2023-01-15T02:59:00;96807.19;;;0.51;100.00
13867;BME280;7003;46.982;15.248;2023-01-15T03:01:32;96799.56;;;0.54;100.00
13867;BME280;7003;46.982;15.248;2023-01-15T03:04:08;96799.31;;;0.61;100.00
13867;BME280;7003;46.982;15.248;2023-01-15T03:06:40;96799.78;;;0.68;100.00
13867;BME280;7003;46.982;15.248;2023-01-15T03:09:09;96789.06;;;0.64;100.00
13867;BME280;7003;46.982;15.248;2023-01-15T03:11:40;96788.06;;;0.55;100.00
13867;BME280;7003;46.982;15.248;2023-01-15T03:14:17;96795.19;;;0.45;100.00
13867;BME280;7003;46.982;15.248;2023-01-15T03:16:49;96791.28;;;0.32;100.00
13867;BME280;7003;46.982;15.248;2023-01-15T03:19:26;96784.75;;;0.34;100.00
13867;BME280;7003;46.982;15.248;2023-01-15T03:22:02;96786.84;;;0.32;100.00
13867;BME280;7003;46.982;15.248;2023-01-15T03:24:38;96781.63;;;0.32;100.00
13867;BME280;7003;46.982;15.248;2023-01-15T03:27:07;96771.16;;;0.32;100.00
13867;BME280;7003;46.982;15.248;2023-01-15T03:29:41;96770.09;;;0.33;100.00
13867;BME280;7003;46.982;15.248;2023-01-15T03:32:14;96762.03;;;0.30;100.00
13867;BME280;7003;46.982;15.248;2023-01-15T03:34:47;96764.38;;;0.26;100.00
13867;BME280;7003;46.982;15.248;2023-01-15T03:37:16;96766.66;;;0.43;100.00
13867;BME280;7003;46.982;15.248;2023-01-15T03:39:47;96752.84;;;0.32;100.00
13867;BME280;7003;46.982;15.248;2023-01-15T03:42:23;96754.47;;;0.18;100.00
13867;BME280;7003;46.982;15.248;2023-01-15T03:45:00;96748.72;;;0.16;100.00
13867;BME280;7003;46.982;15.248;2023-01-15T03:47:37;96747.19;;;0.10;100.00
13867;BME280;7003;46.982;15.248;2023-01-15T03:50:14;96735.63;;;0.16;100.00
13867;BME280;7003;46.982;15.248;2023-01-15T03:52:48;96735.69;;;0.01;100.00
13867;BME280;7003;46.982;15.248;2023-01-15T03:55:25;96724.25;;;-0.13;100.00
13867;BME280;7003;46.982;15.248;2023-01-15T03:57:57;96726.38;;;-0.20;100.00
13867;BME280;7003;46.982;15.248;2023-01-15T04:00:32;96723.19;;;-0.12;100.00
13867;BME280;7003;46.982;15.248;2023-01-15T04:03:01;96726.63;;;-0.17;100.00
13867;BME280;7003;46.982;15.248;2023-01-15T04:05:31;96719.53;;;-0.11;100.00
13867;BME280;7003;46.982;15.248;2023-01-15T04:08:03;96702.81;;;-0.15;100.00
13867;BME280;7003;46.982;15.248;2023-01-15T04:10:31;96703.41;;;-0.39;100.00
13867;BME280;7003;46.982;15.248;2023-01-15T04:13:00;96703.66;;;-0.30;100.00
13867;BME280;7003;46.982;15.248;2023-01-15T04:15:32;96707.53;;;-0.22;100.00
13867;BME280;7003;46.982;15.248;2023-01-15T04:17:59;96712.44;;;0.05;100.00
13867;BME280;7003;46.982;15.248;2023-01-15T04:20:28;96711.16;;;-0.03;100.00
13867;BME280;7003;46.982;15.248;2023-01-15T04:22:55;96705.13;;;-0.04;100.00
13867;BME280;7003;46.982;15.248;2023-01-15T04:25:22;96710.09;;;-0.07;100.00
13867;BME280;7003;46.982;15.248;2023-01-15T04:27:52;96706.25;;;-0.30;100.00
13867;BME280;7003;46.982;15.248;2023-01-15T04:30:20;96709.69;;;-0.34;100.00
13867;BME280;7003;46.982;15.248;2023-01-15T04:32:49;96708.13;;;-0.35;100.00
13867;BME280;7003;46.982;15.248;2023-01-15T04:35:19;96693.78;;;-0.48;100.00
13867;BME280;7003;46.982;15.248;2023-01-15T04:37:46;96693.44;;;-0.21;100.00
13867;BME280;7003;46.982;15.248;2023-01-15T04:40:14;96686.13;;;-0.29;100.00
13867;BME280;7003;46.982;15.248;2023-01-15T04:42:58;96684.34;;;-0.34;100.00
13867;BME280;7003;46.982;15.248;2023-01-15T04:45:45;96672.56;;;-0.31;100.00
13867;BME280;7003;46.982;15.248;2023-01-15T04:48:14;96674.16;;;-0.41;100.00
13867;BME280;7003;46.982;15.248;2023-01-15T04:50:41;96671.31;;;-0.49;100.00
13867;BME280;7003;46.982;15.248;2023-01-15T04:53:09;96662.19;;;-0.67;100.00
13867;BME280;7003;46.982;15.248;2023-01-15T04:55:36;96664.84;;;-0.82;100.00
13867;BME280;7003;46.982;15.248;2023-01-15T04:58:31;96666.16;;;-0.80;100.00
13867;BME280;7003;46.982;15.248;2023-01-15T05:01:01;96661.44;;;-0.83;100.00
13867;BME280;7003;46.982;15.248;2023-01-15T05:03:31;96654.66;;;-0.84;100.00
13867;BME280;7003;46.982;15.248;2023-01-15T05:06:00;96646.00;;;-0.69;100.00
13867;BME280;7003;46.982;15.248;2023-01-15T05:08:27;96637.53;;;-0.30;100.00
13867;BME280;7003;46.982;15.248;2023-01-15T05:10:54;96637.06;;;-0.43;100.00
13867;BME280;7003;46.982;15.248;2023-01-15T05:13:21;96631.34;;;-0.50;100.00
13867;BME280;7003;46.982;15.248;2023-01-15T05:15:48;96623.78;;;-0.56;100.00
13867;BME280;7003;46.982;15.248;2023-01-15T05:18:16;96630.69;;;-0.21;100.00
13867;BME280;7003;46.982;15.248;2023-01-15T05:20:47;96620.31;;;-0.31;100.00
13867;BME280;7003;46.982;15.248;2023-01-15T05:23:15;96623.47;;;-0.45;100.00
13867;BME280;7003;46.982;15.248;2023-01-15T05:25:45;96633.47;;;0.08;100.00
13867;BME280;7003;46.982;15.248;2023-01-15T05:28:12;96629.28;;;0.02;100.00
13867;BME280;7003;46.982;15.248;2023-01-15T05:30:39;96620.25;;;-0.21;100.00
13867;BME280;7003;46.982;15.248;2023-01-15T05:33:06;96623.72;;;-0.46;100.00
13867;BME280;7003;46.982;15.248;2023-01-15T05:35:34;96624.53;;;-0.41;100.00
13867;BME280;7003;46.982;15.248;2023-01-15T05:38:02;96627.94;;;-0.50;100.00
13867;BME280;7003;46.982;15.248;2023-01-15T05:40:35;96617.50;;;-0.60;100.00
13867;BME280;7003;46.982;15.248;2023-01-15T05:43:04;96623.28;;;-0.63;100.00
13867;BME280;7003;46.982;15.248;2023-01-15T05:45:33;96618.84;;;-0.68;100.00
13867;BME280;7003;46.982;15.248;2023-01-15T05:48:04;96625.59;;;-0.52;100.00
13867;BME280;7003;46.982;15.248;2023-01-15T05:50:31;96620.09;;;-0.50;100.00
13867;BME280;7003;46.982;15.248;2023-01-15T05:53:00;96621.66;;;-0.44;100.00
13867;BME280;7003;46.982;15.248;2023-01-15T05:55:29;96622.75;;;-0.60;100.00
13867;BME280;7003;46.982;15.248;2023-01-15T05:57:56;96613.91;;;-0.74;100.00
13867;BME280;7003;46.982;15.248;2023-01-15T06:00:23;96620.69;;;-0.73;100.00
13867;BME280;7003;46.982;15.248;2023-01-15T06:02:53;96610.53;;;-0.80;100.00
13867;BME280;7003;46.982;15.248;2023-01-15T06:05:20;96608.97;;;-0.81;100.00
13867;BME280;7003;46.982;15.248;2023-01-15T06:07:47;96615.25;;;-0.92;100.00
13867;BME280;7003;46.982;15.248;2023-01-15T06:10:17;96608.47;;;-0.98;100.00
13867;BME280;7003;46.982;15.248;2023-01-15T06:12:46;96611.56;;;-0.81;100.00
13867;BME280;7003;46.982;15.248;2023-01-15T06:15:16;96608.72;;;-0.90;100.00
13867;BME280;7003;46.982;15.248;2023-01-15T06:17:43;96604.28;;;-0.99;100.00
13867;BME280;7003;46.982;15.248;2023-01-15T06:20:14;96600.38;;;-0.97;100.00
13867;BME280;7003;46.982;15.248;2023-01-15T06:22:41;96603.22;;;-0.83;100.00
13867;BME280;7003;46.982;15.248;2023-01-15T06:25:09;96602.97;;;-0.87;100.00
13867;BME280;7003;46.982;15.248;2023-01-15T06:27:36;96606.63;;;-0.83;100.00
13867;BME280;7003;46.982;15.248;2023-01-15T06:30:07;96601.16;;;-0.91;100.00
13867;BME280;7003;46.982;15.248;2023-01-15T06:32:36;96594.03;;;-0.65;100.00
13867;BME280;7003;46.982;15.248;2023-01-15T06:35:05;96593.03;;;-0.85;100.00
13867;BME280;7003;46.982;15.248;2023-01-15T06:37:36;96598.00;;;-0.83;100.00
13867;BME280;7003;46.982;15.248;2023-01-15T06:40:08;96601.66;;;-0.84;100.00
13867;BME280;7003;46.982;15.248;2023-01-15T06:42:36;96598.78;;;-0.93;100.00
13867;BME280;7003;46.982;15.248;2023-01-15T06:45:24;96590.19;;;-0.88;100.00
13867;BME280;7003;46.982;15.248;2023-01-15T06:48:12;96595.94;;;-0.96;100.00
13867;BME280;7003;46.982;15.248;2023-01-15T06:50:41;96598.00;;;-0.83;100.00
13867;BME280;7003;46.982;15.248;2023-01-15T06:53:10;96591.75;;;-0.87;100.00
13867;BME280;7003;46.982;15.248;2023-01-15T06:55:42;96590.22;;;-0.93;100.00
13867;BME280;7003;46.982;15.248;2023-01-15T06:58:11;96590.97;;;-0.93;100.00
13867;BME280;7003;46.982;15.248;2023-01-15T07:00:41;96587.34;;;-0.97;100.00
13867;BME280;7003;46.982;15.248;2023-01-15T07:03:10;96591.72;;;-0.77;100.00
13867;BME280;7003;46.982;15.248;2023-01-15T07:05:40;96588.03;;;-0.66;100.00
13867;BME280;7003;46.982;15.248;2023-01-15T07:08:11;96596.91;;;-0.67;100.00
13867;BME280;7003;46.982;15.248;2023-01-15T07:10:40;96594.00;;;-0.55;100.00
13867;BME280;7003;46.982;15.248;2023-01-15T07:13:09;96597.06;;;-0.38;100.00
13867;BME280;7003;46.982;15.248;2023-01-15T07:15:41;96596.28;;;-0.33;100.00
13867;BME280;7003;46.982;15.248;2023-01-15T07:18:10;96597.84;;;-0.38;100.00
13867;BME280;7003;46.982;15.248;2023-01-15T07:20:41;96590.78;;;-0.37;100.00
13867;BME280;7003;46.982;15.248;2023-01-15T07:23:09;96582.16;;;-0.32;100.00
13867;BME280;7003;46.982;15.248;2023-01-15T07:25:39;96585.53;;;-0.27;100.00
13867;BME280;7003;46.982;15.248;2023-01-15T07:28:10;96576.25;;;-0.04;100.00
13867;BME280;7003;46.982;15.248;2023-01-15T07:30:41;96576.66;;;0.13;100.00
13867;BME280;7003;46.982;15.248;2023-01-15T07:33:10;96569.75;;;0.27;100.00
13867;BME280;7003;46.982;15.248;2023-01-15T07:35:39;96579.25;;;0.52;100.00
13867;BME280;7003;46.982;15.248;2023-01-15T07:38:08;96580.00;;;0.58;100.00
13867;BME280;7003;46.982;15.248;2023-01-15T07:40:37;96581.09;;;0.52;100.00
13867;BME280;7003;46.982;15.248;2023-01-15T07:43:07;96576.38;;;0.54;100.00
13867;BME280;7003;46.982;15.248;2023-01-15T07:45:55;96574.44;;;0.64;100.00
13867;BME280;7003;46.982;15.248;2023-01-15T07:48:40;96580.81;;;0.53;100.00
13867;BME280;7003;46.982;15.248;2023-01-15T07:51:28;96572.91;;;0.87;100.00
13867;BME280;7003;46.982;15.248;2023-01-15T07:54:00;96562.91;;;0.94;100.00
13867;BME280;7003;46.982;15.248;2023-01-15T07:56:30;96558.63;;;1.03;100.00
13867;BME280;7003;46.982;15.248;2023-01-15T07:58:58;96545.97;;;1.10;100.00
13867;BME280;7003;46.982;15.248;2023-01-15T08:01:31;96551.13;;;1.21;100.00
13867;BME280;7003;46.982;15.248;2023-01-15T08:03:59;96554.09;;;1.33;100.00
13867;BME280;7003;46.982;15.248;2023-01-15T08:06:28;96534.88;;;1.42;100.00
13867;BME280;7003;46.982;15.248;2023-01-15T08:08:59;96536.00;;;1.55;100.00
13867;BME280;7003;46.982;15.248;2023-01-15T08:11:28;96529.03;;;1.69;100.00
13867;BME280;7003;46.982;15.248;2023-01-15T08:14:14;96536.97;;;1.83;100.00
13867;BME280;7003;46.982;15.248;2023-01-15T08:17:01;96550.59;;;1.85;100.00
13867;BME280;7003;46.982;15.248;2023-01-15T08:19:33;96544.81;;;2.02;100.00
13867;BME280;7003;46.982;15.248;2023-01-15T08:22:03;96534.19;;;2.12;100.00
13867;BME280;7003;46.982;15.248;2023-01-15T08:24:31;96536.75;;;1.98;100.00
13867;BME280;7003;46.982;15.248;2023-01-15T08:27:04;96536.13;;;2.06;100.00
13867;BME280;7003;46.982;15.248;2023-01-15T08:29:35;96534.69;;;2.14;100.00
13867;BME280;7003;46.982;15.248;2023-01-15T08:32:09;96527.75;;;2.23;100.00
13867;BME280;7003;46.982;15.248;2023-01-15T08:34:40;96535.53;;;2.28;100.00
13867;BME280;7003;46.982;15.248;2023-01-15T08:37:09;96526.31;;;2.30;100.00
13867;BME280;7003;46.982;15.248;2023-01-15T08:39:37;96538.00;;;2.38;100.00
13867;BME280;7003;46.982;15.248;2023-01-15T08:42:08;96543.84;;;2.49;100.00
13867;BME280;7003;46.982;15.248;2023-01-15T08:44:36;96548.44;;;2.57;100.00
13867;BME280;7003;46.982;15.248;2023-01-15T08:47:04;96546.78;;;2.47;100.00
13867;BME280;7003;46.982;15.248;2023-01-15T08:49:34;96543.06;;;2.48;100.00
13867;BME280;7003;46.982;15.248;2023-01-15T08:52:04;96535.53;;;2.60;100.00
13867;BME280;7003;46.982;15.248;2023-01-15T08:54:32;96522.91;;;2.76;100.00
13867;BME280;7003;46.982;15.248;2023-01-15T08:57:00;96523.53;;;3.00;100.00
13867;BME280;7003;46.982;15.248;2023-01-15T08:59:29;96531.53;;;3.09;100.00
13867;BME280;7003;46.982;15.248;2023-01-15T09:01:57;96520.41;;;3.12;100.00
13867;BME280;7003;46.982;15.248;2023-01-15T09:04:25;96522.00;;;3.40;100.00
13867;BME280;7003;46.982;15.248;2023-01-15T09:06:58;96522.44;;;3.42;100.00
13867;BME280;7003;46.982;15.248;2023-01-15T09:09:28;96510.38;;;3.41;100.00
13867;BME280;7003;46.982;15.248;2023-01-15T09:11:57;96507.75;;;3.41;100.00
13867;BME280;7003;46.982;15.248;2023-01-15T09:14:29;96506.59;;;3.47;100.00
13867;BME280;7003;46.982;15.248;2023-01-15T09:17:00;96497.91;;;3.61;100.00
13867;BME280;7003;46.982;15.248;2023-01-15T09:19:29;96498.56;;;3.66;100.00
13867;BME280;7003;46.982;15.248;2023-01-15T09:21:59;96498.06;;;3.78;100.00
13867;BME280;7003;46.982;15.248;2023-01-15T09:24:28;96494.59;;;3.91;100.00
13867;BME280;7003;46.982;15.248;2023-01-15T09:26:57;96484.63;;;4.24;100.00
13867;BME280;7003;46.982;15.248;2023-01-15T09:29:29;96475.47;;;4.21;100.00
13867;BME280;7003;46.982;15.248;2023-01-15T09:32:00;96480.78;;;4.30;100.00
13867;BME280;7003;46.982;15.248;2023-01-15T09:34:29;96473.16;;;4.51;100.00
13867;BME280;7003;46.982;15.248;2023-01-15T09:36:59;96473.72;;;4.70;100.00
13867;BME280;7003;46.982;15.248;2023-01-15T09:39:28;96471.78;;;4.84;100.00
13867;BME280;7003;46.982;15.248;2023-01-15T09:42:10;96469.03;;;4.98;100.00
13867;BME280;7003;46.982;15.248;2023-01-15T09:44:58;96476.81;;;5.03;100.00
13867;BME280;7003;46.982;15.248;2023-01-15T09:47:34;96465.38;;;5.16;100.00
13867;BME280;7003;46.982;15.248;2023-01-15T09:50:17;96474.41;;;5.24;100.00
13867;BME280;7003;46.982;15.248;2023-01-15T09:53:07;96481.41;;;5.37;100.00
13867;BME280;7003;46.982;15.248;2023-01-15T09:55:45;96473.47;;;5.28;100.00
13867;BME280;7003;46.982;15.248;2023-01-15T09:58:16;96459.50;;;5.28;100.00
13867;BME280;7003;46.982;15.248;2023-01-15T10:00:49;96458.28;;;5.25;100.00
13867;BME280;7003;46.982;15.248;2023-01-15T10:03:26;96448.97;;;5.28;100.00
13867;BME280;7003;46.982;15.248;2023-01-15T10:06:03;96438.56;;;5.23;100.00
13867;BME280;7003;46.982;15.248;2023-01-15T10:08:37;96439.66;;;5.22;100.00
13867;BME280;7003;46.982;15.248;2023-01-15T10:11:24;96438.09;;;5.21;100.00
13867;BME280;7003;46.982;15.248;2023-01-15T10:14:38;96448.53;;;5.43;100.00
13867;BME280;7003;46.982;15.248;2023-01-15T10:17:16;96444.63;;;5.32;100.00
13867;BME280;7003;46.982;15.248;2023-01-15T10:19:46;96438.50;;;5.06;100.00
13867;BME280;7003;46.982;15.248;2023-01-15T10:22:26;96438.03;;;5.03;100.00
13867;BME280;7003;46.982;15.248;2023-01-15T10:25:01;96435.69;;;4.93;100.00
13867;BME280;7003;46.982;15.248;2023-01-15T10:27:33;96424.72;;;5.00;100.00
13867;BME280;7003;46.982;15.248;2023-01-15T10:30:07;96432.63;;;5.00;100.00
13867;BME280;7003;46.982;15.248;2023-01-15T10:32:44;96419.59;;;5.03;100.00
13867;BME280;7003;46.982;15.248;2023-01-15T10:35:39;96415.78;;;5.35;100.00
13867;BME280;7003;46.982;15.248;2023-01-15T10:38:17;96416.88;;;5.26;100.00
13867;BME280;7003;46.982;15.248;2023-01-15T10:41:11;96417.03;;;5.38;100.00
13867;BME280;7003;46.982;15.248;2023-01-15T10:43:50;96408.16;;;5.17;100.00
13867;BME280;7003;46.982;15.248;2023-01-15T10:46:24;96395.59;;;5.22;100.00
13867;BME280;7003;46.982;15.248;2023-01-15T10:48:58;96391.13;;;5.40;100.00
13867;BME280;7003;46.982;15.248;2023-01-15T10:51:36;96379.63;;;5.19;100.00
13867;BME280;7003;46.982;15.248;2023-01-15T10:54:14;96369.84;;;5.28;100.00
13867;BME280;7003;46.982;15.248;2023-01-15T10:56:50;96377.47;;;5.38;100.00
13867;BME280;7003;46.982;15.248;2023-01-15T10:59:33;96370.97;;;5.61;100.00
13867;BME280;7003;46.982;15.248;2023-01-15T11:02:20;96365.97;;;5.60;100.00
13867;BME280;7003;46.982;15.248;2023-01-15T11:04:51;96361.78;;;5.76;100.00
13867;BME280;7003;46.982;15.248;2023-01-15T11:07:21;96353.56;;;5.95;100.00
13867;BME280;7003;46.982;15.248;2023-01-15T11:09:57;96364.69;;;6.17;100.00
13867;BME280;7003;46.982;15.248;2023-01-15T11:12:31;96360.97;;;6.18;100.00
13867;BME280;7003;46.982;15.248;2023-01-15T11:15:22;96351.72;;;6.42;100.00
13867;BME280;7003;46.982;15.248;2023-01-15T11:18:14;96342.59;;;6.31;100.00
13867;BME280;7003;46.982;15.248;2023-01-15T11:21:10;96348.97;;;6.30;100.00
13867;BME280;7003;46.982;15.248;2023-01-15T11:23:40;96343.75;;;6.50;100.00
13867;BME280;7003;46.982;15.248;2023-01-15T11:26:16;96333.63;;;6.52;100.00
13867;BME280;7003;46.982;15.248;2023-01-15T11:28:49;96340.81;;;6.43;100.00
13867;BME280;7003;46.982;15.248;2023-01-15T11:31:18;96334.81;;;6.34;100.00
13867;BME280;7003;46.982;15.248;2023-01-15T11:33:58;96331.53;;;6.37;100.00
13867;BME280;7003;46.982;15.248;2023-01-15T11:36:28;96311.66;;;6.31;100.00
13867;BME280;7003;46.982;15.248;2023-01-15T11:38:57;96310.16;;;6.22;100.00
13867;BME280;7003;46.982;15.248;2023-01-15T11:41:30;96312.97;;;6.16;100.00
13867;BME280;7003;46.982;15.248;2023-01-15T11:44:16;96318.53;;;6.24;100.00
13867;BME280;7003;46.982;15.248;2023-01-15T11:47:08;96316.22;;;6.22;100.00
13867;BME280;7003;46.982;15.248;2023-01-15T11:49:55;96330.38;;;6.17;100.00
13867;BME280;7003;46.982;15.248;2023-01-15T11:52:40;96326.47;;;6.15;100.00
13867;BME280;7003;46.982;15.248;2023-01-15T11:55:16;96324.66;;;6.07;100.00
13867;BME280;7003;46.982;15.248;2023-01-15T11:57:49;96317.03;;;6.05;100.00
13867;BME280;7003;46.982;15.248;2023-01-15T12:00:23;96303.81;;;6.14;100.00
13867;BME280;7003;46.982;15.248;2023-01-15T12:02:56;96302.91;;;6.10;100.00
13867;BME280;7003;46.982;15.248;2023-01-15T12:05:29;96308.19;;;6.10;100.00
13867;BME280;7003;46.982;15.248;2023-01-15T12:08:03;96290.28;;;6.15;100.00
13867;BME280;7003;46.982;15.248;2023-01-15T12:10:50;96282.34;;;6.24;100.00
13867;BME280;7003;46.982;15.248;2023-01-15T12:13:42;96269.75;;;6.21;100.00
13867;BME280;7003;46.982;15.248;2023-01-15T12:16:21;96261.75;;;6.09;100.00
13867;BME280;7003;46.982;15.248;2023-01-15T12:18:56;96266.13;;;5.96;100.00
13867;BME280;7003;46.982;15.248;2023-01-15T12:21:56;96281.84;;;5.93;100.00
13867;BME280;7003;46.982;15.248;2023-01-15T12:27:46;96276.41;;;6.27;100.00
13867;BME280;7003;46.982;15.248;2023-01-15T12:30:23;96265.75;;;6.15;100.00
13867;BME280;7003;46.982;15.248;2023-01-15T12:33:03;96262.41;;;5.97;100.00
13867;BME280;7003;46.982;15.248;2023-01-15T12:35:37;96252.00;;;6.01;100.00
13867;BME280;7003;46.982;15.248;2023-01-15T12:38:12;96240.72;;;6.21;100.00
13867;BME280;7003;46.982;15.248;2023-01-15T12:40:47;96247.91;;;6.12;100.00
13867;BME280;7003;46.982;15.248;2023-01-15T12:43:20;96244.97;;;6.05;100.00
13867;BME280;7003;46.982;15.248;2023-01-15T12:46:11;96241.50;;;6.22;100.00
13867;BME280;7003;46.982;15.248;2023-01-15T12:48:47;96240.50;;;6.35;100.00
13867;BME280;7003;46.982;15.248;2023-01-15T12:51:25;96268.72;;;6.43;100.00
13867;BME280;7003;46.982;15.248;2023-01-15T12:54:00;96264.66;;;6.16;100.00
13867;BME280;7003;46.982;15.248;2023-01-15T12:56:37;96256.59;;;6.12;100.00
13867;BME280;7003;46.982;15.248;2023-01-15T12:59:14;96241.22;;;6.14;100.00
13867;BME280;7003;46.982;15.248;2023-01-15T13:01:51;96218.81;;;6.21;100.00
13867;BME280;7003;46.982;15.248;2023-01-15T13:04:31;96229.81;;;6.31;100.00
13867;BME280;7003;46.982;15.248;2023-01-15T13:07:04;96240.22;;;6.28;100.00
13867;BME280;7003;46.982;15.248;2023-01-15T13:09:43;96236.28;;;6.42;100.00
13867;BME280;7003;46.982;15.248;2023-01-15T13:12:13;96239.44;;;6.27;100.00
13867;BME280;7003;46.982;15.248;2023-01-15T13:14:42;96239.75;;;6.34;100.00
13867;BME280;7003;46.982;15.248;2023-01-15T13:17:19;96232.22;;;6.15;100.00
13867;BME280;7003;46.982;15.248;2023-01-15T13:20:11;96216.38;;;6.15;100.00
13867;BME280;7003;46.982;15.248;2023-01-15T13:22:51;96215.31;;;6.08;100.00
13867;BME280;7003;46.982;15.248;2023-01-15T13:25:49;96227.16;;;6.02;100.00
13867;BME280;7003;46.982;15.248;2023-01-15T13:28:42;96222.81;;;5.97;100.00
13867;BME280;7003;46.982;15.248;2023-01-15T13:31:39;96219.13;;;5.90;100.00
13867;BME280;7003;46.982;15.248;2023-01-15T13:34:28;96223.31;;;5.82;100.00
13867;BME280;7003;46.982;15.248;2023-01-15T13:37:08;96221.91;;;5.85;100.00
13867;BME280;7003;46.982;15.248;2023-01-15T13:39:42;96225.69;;;5.66;100.00